Time;durP1;ratioP1;P1;durP2;ratioP2;P2;SDS_P1;SDS_P2;PMS_P1;PMS_P2;Temp;Humidity;BMP_temperature;BMP_pressure;BME280_temperature;BME280_humidity;BME280_pressure;Samples;Min_cycle;Max_cycle;Signal;HPM_P1;HPM_P2
2023/08/05 00:00:10;;;;;;;2.45;1.20;;;22.10;58.50;;;;;;5128316;27;45331;-72
2023/08/05 00:02:37;;;;;;;2.20;1.40;;;22.10;58.60;;;;;;5127220;27;47070;-72
2023/08/05 00:05:04;;;;;;;1.67;1.20;;;22.10;58.50;;;;;;5127857;27;45268;-72
2023/08/05 00:07:31;;;;;;;2.50;1.38;;;22.10;58.40;;;;;;5128121;27;45310;-72
2023/08/05 00:09:57;;;;;;;1.40;1.25;;;22.10;58.40;;;;;;5128010;27;45450;-72
2023/08/05 00:12:24;;;;;;;1.30;1.20;;;22.10;59.00;;;;;;5127790;27;45269;-72
2023/08/05 00:14:52;;;;;;;1.10;1.00;;;22.00;58.40;;;;;;5127658;27;45316;-72
2023/08/05 00:17:19;;;;;;;1.70;1.48;;;22.00;58.30;;;;;;5127956;27;45394;-72
2023/08/05 00:19:46;;;;;;;1.13;1.02;;;22.00;58.30;;;;;;5127923;27;45215;-72
2023/08/05 00:22:13;;;;;;;1.55;1.45;;;22.00;58.30;;;;;;5126945;27;45308;-72
2023/08/05 00:24:39;;;;;;;1.05;1.00;;;22.00;58.20;;;;;;5127490;27;45241;-72
2023/08/05 00:27:07;;;;;;;1.00;0.95;;;22.00;58.20;;;;;;5128107;27;45328;-72
2023/08/05 00:29:34;;;;;;;1.08;0.98;;;22.00;58.20;;;;;;5127902;27;45478;-72
2023/08/05 00:32:02;;;;;;;1.00;1.00;;;22.00;58.20;;;;;;5127355;27;46290;-72
2023/08/05 00:34:29;;;;;;;1.40;1.30;;;22.00;58.10;;;;;;5127462;27;45336;-72
2023/08/05 00:36:56;;;;;;;1.38;1.10;;;22.00;58.20;;;;;;5127894;27;45424;-72
2023/08/05 00:39:22;;;;;;;1.13;1.10;;;22.00;58.10;;;;;;5127763;27;45326;-72
2023/08/05 00:41:49;;;;;;;0.93;0.93;;;22.00;58.10;;;;;;5127589;27;46158;-72
2023/08/05 00:44:16;;;;;;;2.22;1.30;;;21.90;57.90;;;;;;5127462;27;45320;-72
2023/08/05 00:46:43;;;;;;;1.25;1.15;;;21.90;58.00;;;;;;5127607;27;45339;-72
2023/08/05 00:49:11;;;;;;;1.30;1.20;;;21.90;57.90;;;;;;5127689;27;45203;-72
2023/08/05 00:51:38;;;;;;;1.67;1.58;;;21.90;58.00;;;;;;5127128;27;45375;-72
2023/08/05 00:54:05;;;;;;;0.88;0.88;;;21.90;57.90;;;;;;5127025;27;45323;-72
2023/08/05 00:56:32;;;;;;;1.00;1.00;;;21.90;57.90;;;;;;5127402;27;45365;-72
2023/08/05 00:58:58;;;;;;;1.40;1.05;;;21.90;57.90;;;;;;5127566;27;45390;-72
2023/08/05 01:01:25;;;;;;;2.00;1.10;;;21.90;57.90;;;;;;5127142;27;45179;-72
2023/08/05 01:03:52;;;;;;;1.15;1.05;;;21.90;57.80;;;;;;5127101;27;45311;-71
2023/08/05 01:06:20;;;;;;;1.00;1.00;;;21.80;57.70;;;;;;5126626;27;45298;-72
2023/08/05 01:08:47;;;;;;;0.88;0.88;;;21.80;57.70;;;;;;5127910;27;45291;-72
2023/08/05 01:11:14;;;;;;;1.75;0.88;;;21.80;57.60;;;;;;5130520;27;46170;-72
2023/08/05 01:13:42;;;;;;;1.52;1.17;;;21.80;57.60;;;;;;5130730;27;45544;-72
2023/08/05 01:16:08;;;;;;;1.08;1.02;;;21.80;57.60;;;;;;5130880;27;45264;-72
2023/08/05 01:18:36;;;;;;;1.08;0.90;;;21.80;57.50;;;;;;5131093;27;45366;-72
2023/08/05 01:21:03;;;;;;;1.00;1.00;;;21.80;57.50;;;;;;5130571;27;46383;-72
2023/08/05 01:23:38;;;;;;;1.60;1.20;;;21.80;57.50;;;;;;5130479;27;45164;-72
2023/08/05 01:26:06;;;;;;;0.90;0.90;;;21.70;57.40;;;;;;5130670;27;45328;-72
2023/08/05 01:28:33;;;;;;;0.80;0.80;;;21.80;57.50;;;;;;5130912;27;45355;-72
2023/08/05 01:31:00;;;;;;;1.00;1.00;;;21.80;57.40;;;;;;5130392;27;46697;-72
2023/08/05 01:33:27;;;;;;;1.30;1.13;;;21.70;57.40;;;;;;5130302;27;45363;-72
2023/08/05 01:35:53;;;;;;;1.27;1.13;;;21.70;57.40;;;;;;5129995;27;45276;-72
2023/08/05 01:38:20;;;;;;;1.52;1.20;;;21.70;57.40;;;;;;5130931;27;45462;-72
2023/08/05 01:40:47;;;;;;;1.65;1.10;;;21.70;57.40;;;;;;5130262;27;45247;-72
2023/08/05 01:43:15;;;;;;;1.00;0.90;;;21.70;57.30;;;;;;5130624;27;45311;-72
2023/08/05 01:45:42;;;;;;;1.75;1.10;;;21.70;57.30;;;;;;5130330;27;45344;-72
2023/08/05 01:48:09;;;;;;;2.10;1.02;;;21.70;57.30;;;;;;5130709;27;45413;-72
2023/08/05 01:50:36;;;;;;;1.25;1.00;;;21.70;57.20;;;;;;5129849;27;45261;-72
2023/08/05 01:53:03;;;;;;;1.15;1.05;;;21.70;57.20;;;;;;5129386;27;45315;-72
2023/08/05 01:55:30;;;;;;;1.33;1.08;;;21.60;57.80;;;;;;5130272;27;45344;-72
2023/08/05 01:57:56;;;;;;;0.90;0.90;;;21.60;57.20;;;;;;5130406;27;45293;-72
2023/08/05 02:00:25;;;;;;;1.25;1.02;;;21.60;57.20;;;;;;5130081;27;46460;-72
2023/08/05 02:02:52;;;;;;;1.30;1.17;;;21.60;57.20;;;;;;5130048;27;45325;-72
2023/08/05 02:05:19;;;;;;;1.20;1.10;;;21.60;57.10;;;;;;5130135;27;45376;-72
2023/08/05 02:07:45;;;;;;;1.08;0.98;;;21.60;57.10;;;;;;5130317;27;45541;-72
2023/08/05 02:10:12;;;;;;;0.82;0.82;;;21.60;57.10;;;;;;5129840;27;46352;-72
2023/08/05 02:12:39;;;;;;;1.42;1.33;;;21.60;57.10;;;;;;5129918;27;45343;-72
2023/08/05 02:15:07;;;;;;;1.42;1.10;;;21.60;57.10;;;;;;5129968;27;45207;-72
2023/08/05 02:17:35;;;;;;;1.23;0.95;;;21.60;57.00;;;;;;5130252;27;45403;-72
2023/08/05 02:20:04;;;;;;;1.02;1.00;;;21.60;57.00;;;;;;5128956;27;45398;-72
2023/08/05 02:22:30;;;;;;;0.85;0.85;;;21.60;57.00;;;;;;5129150;27;45353;-72
2023/08/05 02:24:57;;;;;;;2.20;1.30;;;21.60;57.10;;;;;;5129813;27;45257;-72
2023/08/05 02:27:24;;;;;;;1.35;1.25;;;21.60;57.00;;;;;;5129781;27;45287;-72
2023/08/05 02:29:51;;;;;;;1.10;0.90;;;21.60;57.00;;;;;;5129490;27;45496;-72
2023/08/05 02:32:18;;;;;;;0.98;0.98;;;21.50;57.00;;;;;;5129495;27;45342;-72
2023/08/05 02:34:46;;;;;;;1.17;1.10;;;21.60;57.00;;;;;;5128868;27;45433;-72
2023/08/05 02:37:13;;;;;;;0.93;0.93;;;21.50;56.90;;;;;;5129204;27;45420;-72
2023/08/05 02:39:40;;;;;;;1.15;1.05;;;21.50;57.00;;;;;;5129236;27;46374;-72
2023/08/05 02:42:07;;;;;;;1.50;1.20;;;21.60;57.00;;;;;;5128921;27;45501;-72
2023/08/05 02:44:34;;;;;;;1.30;1.20;;;21.50;57.00;;;;;;5129355;27;45320;-72
2023/08/05 02:47:00;;;;;;;1.05;1.00;;;21.50;56.90;;;;;;5129567;27;45332;-72
2023/08/05 02:49:28;;;;;;;0.75;0.75;;;21.50;56.90;;;;;;5129084;27;45272;-72
2023/08/05 02:51:56;;;;;;;1.05;1.00;;;21.60;56.90;;;;;;5129128;27;45310;-72
2023/08/05 02:54:23;;;;;;;1.08;1.08;;;21.50;56.90;;;;;;5128678;27;45378;-72
2023/08/05 02:56:50;;;;;;;1.20;0.98;;;21.50;56.90;;;;;;5130140;27;45421;-72
2023/08/05 02:59:17;;;;;;;1.90;1.10;;;21.50;56.80;;;;;;5129216;27;46314;-72
2023/08/05 03:01:44;;;;;;;1.27;1.02;;;21.50;56.80;;;;;;5129827;27;45406;-72
2023/08/05 03:04:11;;;;;;;0.73;0.73;;;21.50;56.80;;;;;;5129081;27;45338;-72
2023/08/05 03:06:38;;;;;;;1.30;1.20;;;21.50;56.90;;;;;;5129313;27;45483;-72
2023/08/05 03:09:06;;;;;;;1.10;0.90;;;21.50;56.80;;;;;;5129002;27;46443;-72
2023/08/05 03:11:33;;;;;;;0.93;0.90;;;21.50;56.80;;;;;;5128857;27;45326;-72
2023/08/05 03:13:59;;;;;;;0.80;0.80;;;21.50;56.80;;;;;;5128916;27;45307;-72
2023/08/05 03:16:26;;;;;;;0.98;0.98;;;21.50;56.90;;;;;;5129166;27;45562;-72
2023/08/05 03:18:53;;;;;;;3.13;1.10;;;21.50;56.80;;;;;;5119388;27;45332;-72
2023/08/05 03:21:20;;;;;;;0.98;0.98;;;21.50;56.80;;;;;;5128575;27;45331;-72
2023/08/05 03:23:46;;;;;;;0.88;0.88;;;21.50;56.80;;;;;;5128748;27;45257;-72
2023/08/05 03:26:15;;;;;;;1.17;1.00;;;21.40;56.80;;;;;;5128827;27;45205;-72
2023/08/05 03:28:41;;;;;;;1.02;1.02;;;21.50;56.80;;;;;;5128387;27;46371;-72
2023/08/05 03:31:08;;;;;;;2.42;1.00;;;21.50;56.80;;;;;;5128361;27;45408;-72
2023/08/05 03:33:35;;;;;;;1.00;1.00;;;21.40;56.70;;;;;;5128139;27;45373;-72
2023/08/05 03:36:02;;;;;;;1.00;1.00;;;21.40;56.60;;;;;;5128838;27;45384;-72
2023/08/05 03:38:30;;;;;;;0.90;0.90;;;21.40;56.70;;;;;;5128284;27;45440;-72
2023/08/05 03:41:00;;;;;;;1.10;1.00;;;21.40;56.60;;;;;;5128335;27;45607;-72
2023/08/05 03:43:28;;;;;;;1.23;1.13;;;21.40;56.60;;;;;;5128453;27;45335;-72
2023/08/05 03:45:55;;;;;;;0.88;0.88;;;21.40;56.60;;;;;;5128527;27;45328;-72
2023/08/05 03:48:22;;;;;;;0.90;0.90;;;21.40;56.60;;;;;;5128093;27;47307;-72
2023/08/05 03:50:49;;;;;;;1.33;1.00;;;21.40;56.60;;;;;;5128117;27;45537;-72
2023/08/05 03:53:16;;;;;;;0.90;0.90;;;21.30;56.60;;;;;;5128210;27;45461;-72
2023/08/05 03:55:43;;;;;;;0.93;0.90;;;21.30;56.60;;;;;;5128376;27;45171;-72
2023/08/05 03:58:11;;;;;;;1.30;1.13;;;21.40;56.60;;;;;;5127933;27;46406;-72
2023/08/05 04:00:42;;;;;;;1.13;0.98;;;21.30;56.60;;;;;;5128331;27;45377;-72
2023/08/05 04:03:09;;;;;;;1.73;0.90;;;21.30;56.50;;;;;;5128323;27;45335;-71
2023/08/05 04:05:35;;;;;;;1.13;1.02;;;21.30;56.50;;;;;;5127643;27;45370;-72
2023/08/05 04:08:02;;;;;;;0.85;0.80;;;21.30;56.50;;;;;;5128019;27;45543;-72
2023/08/05 04:10:31;;;;;;;0.88;0.88;;;21.30;56.50;;;;;;5127967;27;45347;-72
2023/08/05 04:12:57;;;;;;;0.80;0.80;;;21.30;56.40;;;;;;5126917;27;45212;-72
2023/08/05 04:15:27;;;;;;;1.90;0.98;;;21.30;56.50;;;;;;5128035;27;45458;-72
2023/08/05 04:17:59;;;;;;;1.17;0.93;;;21.20;56.40;;;;;;5127865;27;46747;-72
2023/08/05 04:20:27;;;;;;;1.23;0.90;;;21.20;56.40;;;;;;5127730;27;45272;-72
2023/08/05 04:22:54;;;;;;;0.80;0.80;;;21.30;56.50;;;;;;5119583;27;45415;-72
2023/08/05 04:25:20;;;;;;;0.90;0.90;;;21.30;56.30;;;;;;5127906;27;45445;-72
2023/08/05 04:27:47;;;;;;;0.90;0.90;;;21.20;56.40;;;;;;5127637;27;45509;-72
2023/08/05 04:30:14;;;;;;;0.90;0.90;;;21.20;56.30;;;;;;5127552;27;45396;-72
2023/08/05 04:32:41;;;;;;;1.25;1.15;;;21.20;56.40;;;;;;5127839;27;45323;-72
2023/08/05 04:35:10;;;;;;;0.88;0.88;;;21.20;56.30;;;;;;5127842;27;45386;-72
2023/08/05 04:37:36;;;;;;;0.82;0.82;;;21.20;56.30;;;;;;5127424;27;46655;-72
2023/08/05 04:40:04;;;;;;;1.27;0.82;;;21.20;56.20;;;;;;5127595;27;45143;-72
2023/08/05 04:42:31;;;;;;;1.33;0.90;;;21.20;56.30;;;;;;5127755;27;45323;-73
2023/08/05 04:44:57;;;;;;;1.00;0.95;;;21.20;56.30;;;;;;5129968;27;45249;-72
2023/08/05 04:47:24;;;;;;;1.10;1.00;;;21.20;56.90;;;;;;5131177;27;45408;-72
2023/08/05 04:49:51;;;;;;;0.90;0.90;;;21.20;56.30;;;;;;5130574;27;45292;-72
2023/08/05 04:52:20;;;;;;;1.10;1.00;;;21.20;56.30;;;;;;5130435;27;45311;-72
2023/08/05 04:54:46;;;;;;;2.47;0.95;;;21.20;56.30;;;;;;5131076;27;45310;-72
2023/08/05 04:57:13;;;;;;;1.23;0.90;;;21.20;56.20;;;;;;5130932;27;46670;-72
2023/08/05 04:59:40;;;;;;;1.00;1.00;;;21.20;56.20;;;;;;5131085;27;45317;-72
2023/08/05 05:02:07;;;;;;;1.00;1.00;;;21.20;56.20;;;;;;5131132;27;45223;-72
2023/08/05 05:04:34;;;;;;;0.98;0.90;;;21.20;56.20;;;;;;5131124;27;45292;-72
2023/08/05 05:07:01;;;;;;;0.90;0.90;;;21.20;56.10;;;;;;5131012;27;45602;-72
2023/08/05 05:09:29;;;;;;;0.82;0.82;;;21.20;56.00;;;;;;5130954;27;45340;-72
2023/08/05 05:11:56;;;;;;;1.20;0.93;;;21.20;56.10;;;;;;5130934;27;45468;-72
2023/08/05 05:14:23;;;;;;;1.13;1.10;;;21.20;56.10;;;;;;5130916;27;45554;-72
2023/08/05 05:16:50;;;;;;;1.27;1.17;;;21.20;56.60;;;;;;5130687;27;46387;-72
2023/08/05 05:19:17;;;;;;;1.10;1.10;;;21.20;56.00;;;;;;5130535;27;45312;-72
2023/08/05 05:21:44;;;;;;;1.00;1.00;;;21.20;56.10;;;;;;5130950;27;45425;-72
2023/08/05 05:24:11;;;;;;;1.05;0.95;;;21.20;56.00;;;;;;5130734;27;45416;-72
2023/08/05 05:26:39;;;;;;;0.90;0.90;;;21.20;56.00;;;;;;5130082;27;46404;-72
2023/08/05 05:29:06;;;;;;;1.00;0.90;;;21.20;55.80;;;;;;5130620;27;45326;-72
2023/08/05 05:31:32;;;;;;;0.95;0.85;;;21.20;55.80;;;;;;5129998;27;45323;-72
2023/08/05 05:33:59;;;;;;;1.02;1.00;;;21.20;55.80;;;;;;5130306;27;45418;-72
2023/08/05 05:36:26;;;;;;;0.80;0.80;;;21.20;55.80;;;;;;5130162;27;47296;-72
2023/08/05 05:38:53;;;;;;;1.52;1.20;;;21.20;55.80;;;;;;5121678;27;45241;-72
2023/08/05 05:41:20;;;;;;;1.27;1.10;;;21.20;55.70;;;;;;5130394;27;45422;-72
2023/08/05 05:43:48;;;;;;;1.02;0.93;;;21.20;55.80;;;;;;5130603;27;45326;-72
2023/08/05 05:46:17;;;;;;;0.80;0.80;;;21.20;55.70;;;;;;5130175;27;45403;-72
2023/08/05 05:48:44;;;;;;;0.88;0.85;;;21.20;55.70;;;;;;5130134;27;45217;-72
2023/08/05 05:51:10;;;;;;;0.90;0.90;;;21.20;55.60;;;;;;5130096;27;45229;-72
2023/08/05 05:53:37;;;;;;;0.82;0.82;;;21.20;55.60;;;;;;5129817;27;45301;-72
2023/08/05 05:56:05;;;;;;;1.40;1.30;;;21.20;55.60;;;;;;5129732;27;45520;-72
2023/08/05 05:58:34;;;;;;;1.08;1.00;;;21.20;55.70;;;;;;5130085;27;45352;-72
2023/08/05 06:01:02;;;;;;;0.93;0.93;;;21.20;55.60;;;;;;5129916;27;45360;-72
2023/08/05 06:03:31;;;;;;;0.80;0.80;;;21.20;55.70;;;;;;5130272;27;45370;-71
2023/08/05 06:05:59;;;;;;;1.25;1.00;;;21.20;55.80;;;;;;5129815;27;46702;-72
2023/08/05 06:08:26;;;;;;;0.90;0.90;;;21.20;55.80;;;;;;5129731;27;44828;-72
2023/08/05 06:10:53;;;;;;;0.90;0.90;;;21.20;55.80;;;;;;5130489;27;45391;-72
2023/08/05 06:13:20;;;;;;;0.98;0.98;;;21.20;55.70;;;;;;5130024;27;45328;-72
2023/08/05 06:15:46;;;;;;;0.90;0.90;;;21.20;55.70;;;;;;5129890;27;47024;-72
2023/08/05 06:18:14;;;;;;;1.88;0.98;;;21.20;55.60;;;;;;5129612;27;45283;-71
2023/08/05 06:20:41;;;;;;;2.72;1.00;;;21.20;55.50;;;;;;5129370;27;45462;-72
2023/08/05 06:23:08;;;;;;;1.20;0.98;;;21.20;55.40;;;;;;5129832;27;45281;-72
2023/08/05 06:25:35;;;;;;;1.33;1.00;;;21.20;55.50;;;;;;5129227;27;46644;-72
2023/08/05 06:28:02;;;;;;;1.20;1.10;;;21.20;55.40;;;;;;5129654;27;45402;-72
2023/08/05 06:30:29;;;;;;;1.17;1.00;;;21.30;55.40;;;;;;5129744;27;45228;-72
2023/08/05 06:32:55;;;;;;;1.27;1.17;;;21.30;55.50;;;;;;5129615;27;45420;-72
2023/08/05 06:35:24;;;;;;;2.38;1.10;;;21.30;55.40;;;;;;5129254;27;45269;-72
2023/08/05 06:37:51;;;;;;;1.85;1.10;;;21.30;55.40;;;;;;5129630;27;45389;-72
2023/08/05 06:40:17;;;;;;;0.93;0.93;;;21.30;55.40;;;;;;5129485;27;45383;-72
2023/08/05 06:42:44;;;;;;;2.13;1.00;;;21.30;55.30;;;;;;5129591;27;45410;-72
2023/08/05 06:45:11;;;;;;;1.15;1.05;;;21.30;55.30;;;;;;5128946;27;45403;-72
2023/08/05 06:47:38;;;;;;;0.82;0.82;;;21.30;55.30;;;;;;5129193;27;45326;-72
2023/08/05 06:50:06;;;;;;;1.00;0.90;;;21.40;55.30;;;;;;5129394;27;45322;-72
2023/08/05 06:52:34;;;;;;;0.88;0.80;;;21.40;55.20;;;;;;5129367;27;45342;-71
2023/08/05 06:55:03;;;;;;;0.90;0.90;;;21.40;55.20;;;;;;5128603;27;45366;-72
2023/08/05 06:57:30;;;;;;;2.83;1.00;;;21.40;55.20;;;;;;5128857;27;45324;-72
2023/08/05 06:59:57;;;;;;;2.00;1.13;;;21.40;55.20;;;;;;5129087;27;45314;-72
2023/08/05 07:02:24;;;;;;;1.38;1.13;;;21.40;55.20;;;;;;5129130;27;45480;-71
2023/08/05 07:04:51;;;;;;;1.30;1.20;;;21.40;55.20;;;;;;5127784;27;46735;-72
2023/08/05 07:07:18;;;;;;;1.30;1.20;;;21.40;55.80;;;;;;5128036;27;45314;-73
2023/08/05 07:09:46;;;;;;;1.45;1.10;;;21.40;55.20;;;;;;5129150;27;45414;-72
2023/08/05 07:12:13;;;;;;;1.35;1.08;;;21.40;55.30;;;;;;5128692;27;45375;-72
2023/08/05 07:14:44;;;;;;;1.17;0.90;;;21.40;55.40;;;;;;5128642;27;46775;-72
2023/08/05 07:17:11;;;;;;;2.03;1.17;;;21.40;55.40;;;;;;5128615;27;45319;-72
2023/08/05 07:19:38;;;;;;;0.80;0.80;;;21.40;55.30;;;;;;5128807;27;45277;-72
2023/08/05 07:22:05;;;;;;;1.15;1.10;;;21.40;55.20;;;;;;5129087;27;45311;-72
2023/08/05 07:24:32;;;;;;;1.30;1.20;;;21.40;55.30;;;;;;5128182;27;46798;-72
2023/08/05 07:27:00;;;;;;;3.15;0.95;;;21.40;55.30;;;;;;5128510;27;45331;-72
2023/08/05 07:29:27;;;;;;;1.25;1.15;;;21.50;55.90;;;;;;5128504;27;45382;-72
2023/08/05 07:31:54;;;;;;;0.90;0.90;;;21.50;55.20;;;;;;5128745;27;45436;-72
2023/08/05 07:34:20;;;;;;;1.60;1.10;;;21.50;55.10;;;;;;5128100;27;46738;-72
2023/08/05 07:36:47;;;;;;;1.30;1.20;;;21.50;55.10;;;;;;5128301;27;45213;-72
2023/08/05 07:39:14;;;;;;;1.15;1.10;;;21.50;55.20;;;;;;5128710;27;45388;-72
2023/08/05 07:41:41;;;;;;;1.02;1.00;;;21.50;55.20;;;;;;5128566;27;45506;-72
2023/08/05 07:44:12;;;;;;;1.20;1.10;;;21.60;55.20;;;;;;5128352;27;47645;-72
2023/08/05 07:46:40;;;;;;;0.95;0.95;;;21.60;55.80;;;;;;5128129;27;45315;-72
2023/08/05 07:49:07;;;;;;;1.10;1.10;;;21.60;55.00;;;;;;5128033;27;45384;-71
2023/08/05 07:51:34;;;;;;;1.00;0.90;;;21.60;55.00;;;;;;5127853;27;45372;-71
2023/08/05 07:54:01;;;;;;;0.85;0.85;;;21.70;55.10;;;;;;5127455;27;46839;-71
2023/08/05 07:56:28;;;;;;;1.17;1.05;;;21.70;55.00;;;;;;5128031;27;45312;-72
2023/08/05 07:58:54;;;;;;;0.75;0.75;;;21.70;55.00;;;;;;5128384;27;45383;-72
2023/08/05 08:01:23;;;;;;;1.15;1.05;;;21.70;55.10;;;;;;5128293;27;45419;-72
2023/08/05 08:03:53;;;;;;;1.20;1.15;;;21.70;55.10;;;;;;5127720;27;46631;-72
2023/08/05 08:06:20;;;;;;;0.88;0.85;;;21.70;55.00;;;;;;5127807;27;45290;-72
2023/08/05 08:08:47;;;;;;;1.30;1.20;;;21.80;55.00;;;;;;5127890;27;45398;-72
2023/08/05 08:11:13;;;;;;;1.08;1.05;;;21.80;54.90;;;;;;5128403;27;45392;-72
2023/08/05 08:13:40;;;;;;;0.93;0.93;;;21.90;54.80;;;;;;5127694;27;46394;-71
2023/08/05 08:16:07;;;;;;;0.80;0.80;;;21.80;54.90;;;;;;5127777;27;45253;-72
2023/08/05 08:18:35;;;;;;;10.63;1.35;;;21.80;54.80;;;;;;5132666;27;45349;-71
2023/08/05 08:21:03;;;;;;;2.72;1.60;;;21.80;55.40;;;;;;5167070;27;45379;-72
2023/08/05 08:23:30;;;;;;;2.10;1.30;;;21.90;56.00;;;;;;5169116;27;46954;-70
2023/08/05 08:25:58;;;;;;;1.60;1.33;;;21.90;55.80;;;;;;5169732;27;45284;-76
2023/08/05 08:28:25;;;;;;;2.20;1.48;;;21.90;56.50;;;;;;5168206;27;45308;-76
2023/08/05 08:30:53;;;;;;;2.65;1.40;;;21.90;57.00;;;;;;5169739;27;45477;-75
2023/08/05 08:33:20;;;;;;;1.90;1.70;;;22.00;57.10;;;;;;5170511;27;45448;-78
2023/08/05 08:35:48;;;;;;;2.17;1.70;;;22.00;57.40;;;;;;5168937;27;45324;-74
2023/08/05 08:38:15;;;;;;;4.13;1.55;;;22.00;57.50;;;;;;5169604;27;45388;-72
2023/08/05 08:40:47;;;;;;;1.63;1.52;;;22.10;57.50;;;;;;5169506;27;45371;-71
2023/08/05 08:43:15;;;;;;;3.40;1.63;;;22.20;57.70;;;;;;5169347;27;47594;-76
2023/08/05 08:45:41;;;;;;;5.55;1.70;;;22.30;57.60;;;;;;5168851;27;45416;-71
2023/08/05 08:48:09;;;;;;;2.20;1.75;;;22.30;57.70;;;;;;5169351;27;45377;-74
2023/08/05 08:50:36;;;;;;;2.80;1.90;;;22.40;57.20;;;;;;5170005;27;45596;-72
2023/08/05 08:53:04;;;;;;;3.88;1.90;;;22.40;57.20;;;;;;5166350;27;46133;-74
2023/08/05 08:55:31;;;;;;;1.90;1.77;;;22.50;57.00;;;;;;5169516;27;45459;-73
2023/08/05 08:57:58;;;;;;;2.47;1.65;;;22.50;56.80;;;;;;5169523;27;45332;-73
2023/08/05 09:00:25;;;;;;;3.88;1.83;;;22.60;56.50;;;;;;5170864;27;45304;-73
2023/08/05 09:02:51;;;;;;;2.75;1.88;;;22.60;56.50;;;;;;5169117;27;46652;-73
2023/08/05 09:05:18;;;;;;;2.72;1.85;;;22.60;56.50;;;;;;5168588;27;45255;-73
2023/08/05 09:07:45;;;;;;;2.67;2.08;;;22.60;56.40;;;;;;5170527;27;45282;-73
2023/08/05 09:10:13;;;;;;;2.13;1.80;;;22.60;56.20;;;;;;5170746;27;45453;-72
2023/08/05 09:12:40;;;;;;;2.05;1.85;;;22.60;56.30;;;;;;5170347;27;46523;-73
2023/08/05 09:15:08;;;;;;;1.73;1.63;;;22.60;55.90;;;;;;5170164;27;45289;-73
2023/08/05 09:17:38;;;;;;;2.53;1.70;;;22.70;55.70;;;;;;5168916;27;45381;-72
2023/08/05 09:20:12;;;;;;;1.80;1.70;;;22.70;55.90;;;;;;5169241;27;45473;-73
2023/08/05 09:22:39;;;;;;;2.38;2.17;;;22.70;55.90;;;;;;5166086;27;45312;-72
2023/08/05 09:25:07;;;;;;;3.47;1.90;;;22.70;55.90;;;;;;5168805;27;45462;-72
2023/08/05 09:27:47;;;;;;;2.05;1.80;;;22.70;55.90;;;;;;5170066;27;45294;-73
2023/08/05 09:30:17;;;;;;;2.50;2.10;;;22.70;55.90;;;;;;5171111;27;45275;-73
2023/08/05 09:32:45;;;;;;;2.63;1.90;;;22.70;56.30;;;;;;5172251;27;46661;-73
2023/08/05 09:35:12;;;;;;;2.78;2.05;;;22.70;56.80;;;;;;5172194;27;45399;-74
2023/08/05 09:37:40;;;;;;;2.25;2.05;;;22.70;56.00;;;;;;5172652;27;45489;-73
2023/08/05 09:40:16;;;;;;;2.65;2.10;;;22.70;56.30;;;;;;5172771;27;45295;-72
2023/08/05 09:42:47;;;;;;;1.73;1.63;;;22.80;56.00;;;;;;5172212;27;46143;-72
2023/08/05 09:45:15;;;;;;;2.15;1.70;;;22.80;55.90;;;;;;5172237;27;45461;-72
2023/08/05 09:47:42;;;;;;;4.72;2.13;;;22.80;55.80;;;;;;5172144;27;45318;-72
2023/08/05 09:50:11;;;;;;;1.75;1.65;;;22.80;55.90;;;;;;5172455;27;45275;-74
2023/08/05 09:52:39;;;;;;;2.20;2.00;;;22.80;55.70;;;;;;5171904;27;45373;-74
2023/08/05 09:55:11;;;;;;;3.55;2.03;;;22.90;56.50;;;;;;5171760;27;45397;-74
2023/08/05 09:57:37;;;;;;;2.40;1.80;;;22.90;55.60;;;;;;5172374;27;45420;-74
2023/08/05 10:00:11;;;;;;;2.90;1.77;;;22.90;55.60;;;;;;5172298;27;45322;-74
2023/08/05 10:02:38;;;;;;;5.57;2.05;;;22.90;55.60;;;;;;5171790;27;47784;-73
2023/08/05 10:05:05;;;;;;;1.83;1.60;;;22.90;55.50;;;;;;5171093;27;45375;-73
2023/08/05 10:07:32;;;;;;;2.10;1.88;;;22.90;55.30;;;;;;5172114;27;45429;-73
2023/08/05 10:10:00;;;;;;;3.40;1.80;;;23.00;55.00;;;;;;5172235;27;45512;-73
2023/08/05 10:12:29;;;;;;;4.75;1.83;;;23.00;55.20;;;;;;5171902;27;45446;-73
2023/08/05 10:14:56;;;;;;;2.20;2.00;;;23.00;55.30;;;;;;5171701;27;45357;-74
2023/08/05 10:17:24;;;;;;;3.30;1.90;;;23.00;55.10;;;;;;5172000;27;45121;-73
2023/08/05 10:19:51;;;;;;;2.97;2.30;;;23.00;54.90;;;;;;5172224;27;45376;-73
2023/08/05 10:22:21;;;;;;;2.78;1.90;;;23.10;55.00;;;;;;5171591;27;46370;-73
2023/08/05 10:24:56;;;;;;;3.05;1.67;;;23.10;55.40;;;;;;5171541;27;45201;-72
2023/08/05 10:27:39;;;;;;;1.70;1.60;;;23.10;54.90;;;;;;5171924;27;45356;-73
2023/08/05 10:30:10;;;;;;;1.70;1.60;;;23.10;54.80;;;;;;5172410;27;45340;-73
2023/08/05 10:32:51;;;;;;;2.20;2.00;;;23.20;54.90;;;;;;5172016;27;46633;-72
2023/08/05 10:35:27;;;;;;;2.38;1.67;;;23.20;54.80;;;;;;5171552;27;45304;-73
2023/08/05 10:38:08;;;;;;;3.78;1.80;;;23.20;54.90;;;;;;5172041;27;45239;-73
2023/08/05 10:40:42;;;;;;;1.70;1.60;;;23.20;54.80;;;;;;5172048;27;45457;-72
2023/08/05 10:43:09;;;;;;;2.38;1.80;;;23.20;54.90;;;;;;5171090;27;46317;-72
2023/08/05 10:45:36;;;;;;;4.55;2.13;;;23.30;54.90;;;;;;5171545;27;45623;-72
2023/08/05 10:48:09;;;;;;;2.85;1.70;;;23.40;55.00;;;;;;5171449;27;45383;-72
2023/08/05 10:50:36;;;;;;;2.15;1.80;;;23.40;54.90;;;;;;5171730;27;45437;-72
2023/08/05 10:53:08;;;;;;;5.93;1.83;;;23.50;54.90;;;;;;5171284;27;46396;-72
2023/08/05 10:55:45;;;;;;;2.55;1.75;;;23.50;54.70;;;;;;5171578;27;45284;-72
2023/08/05 10:58:12;;;;;;;1.90;1.52;;;23.60;54.70;;;;;;5171566;27;45302;-73
2023/08/05 11:00:40;;;;;;;1.98;1.88;;;23.70;54.60;;;;;;5171717;27;45451;-72
2023/08/05 11:03:33;;;;;;;1.90;1.80;;;23.70;54.50;;;;;;5171104;27;45364;-72
2023/08/05 11:06:02;;;;;;;1.75;1.65;;;23.80;54.40;;;;;;5159962;27;45344;-73
2023/08/05 11:08:30;;;;;;;1.90;1.80;;;23.90;54.30;;;;;;5150320;27;45512;-73
2023/08/05 11:10:57;;;;;;;1.90;1.63;;;24.00;53.50;;;;;;5150583;27;45349;-72
2023/08/05 11:13:24;;;;;;;1.70;1.60;;;23.90;53.50;;;;;;5149936;27;46541;-72
2023/08/05 11:16:10;;;;;;;3.97;1.45;;;24.00;53.80;;;;;;5150000;27;45292;-72
2023/08/05 11:18:38;;;;;;;1.67;1.58;;;24.10;53.60;;;;;;5150105;27;45281;-73
2023/08/05 11:21:06;;;;;;;1.75;1.65;;;24.20;53.60;;;;;;5150510;27;45419;-73
2023/08/05 11:23:33;;;;;;;2.88;1.60;;;24.20;53.80;;;;;;5149636;27;46761;-73
2023/08/05 11:26:01;;;;;;;1.92;1.75;;;24.30;53.50;;;;;;5149100;27;45408;-73
2023/08/05 11:28:28;;;;;;;1.67;1.58;;;24.40;53.30;;;;;;5149401;27;45341;-74
2023/08/05 11:30:55;;;;;;;2.25;1.95;;;24.50;53.40;;;;;;5149190;27;45441;-73
2023/08/05 11:33:22;;;;;;;3.20;1.63;;;24.60;53.40;;;;;;5148640;27;46662;-72
2023/08/05 11:35:52;;;;;;;2.08;1.92;;;24.60;52.70;;;;;;5148367;27;45243;-72
2023/08/05 11:38:19;;;;;;;2.10;1.77;;;24.70;52.70;;;;;;5149550;27;45283;-72
2023/08/05 11:40:46;;;;;;;1.60;1.50;;;24.80;52.90;;;;;;5148255;27;45743;-72
2023/08/05 11:43:13;;;;;;;1.50;1.40;;;24.90;52.50;;;;;;5147736;27;46691;-72
2023/08/05 11:45:41;;;;;;;2.17;1.60;;;25.00;52.30;;;;;;5148910;27;45392;-72
2023/08/05 11:48:16;;;;;;;1.90;1.75;;;25.00;52.20;;;;;;5149048;27;45477;-72
2023/08/05 11:50:43;;;;;;;2.47;1.77;;;25.00;51.10;;;;;;5144973;27;45411;-72
2023/08/05 11:53:12;;;;;;;12.88;2.35;;;25.10;51.20;;;;;;5143498;27;46358;-73
2023/08/05 11:55:40;;;;;;;3.05;1.52;;;25.20;51.00;;;;;;5141501;27;45347;-72
2023/08/05 11:58:07;;;;;;;1.50;1.40;;;25.30;51.20;;;;;;5149003;27;45310;-72
2023/08/05 12:00:33;;;;;;;1.73;1.38;;;25.30;48.60;;;;;;5138809;27;45454;-71
2023/08/05 12:03:01;;;;;;;3.05;1.63;;;25.30;48.70;;;;;;5147058;27;45588;-72
2023/08/05 12:05:28;;;;;;;1.60;1.50;;;25.40;48.70;;;;;;5140266;27;45369;-73
2023/08/05 12:07:54;;;;;;;3.42;1.50;;;25.50;48.80;;;;;;5132740;27;45555;-74
2023/08/05 12:10:22;;;;;;;2.70;1.50;;;25.60;49.40;;;;;;5146177;27;45280;-72
2023/08/05 12:12:50;;;;;;;2.83;1.85;;;25.70;49.60;;;;;;5142673;27;46394;-72
2023/08/05 12:15:17;;;;;;;4.18;1.50;;;25.90;49.80;;;;;;5147332;27;45471;-73
2023/08/05 12:17:48;;;;;;;3.53;1.60;;;25.90;49.90;;;;;;5144102;27;45516;-73
2023/08/05 12:20:16;;;;;;;1.85;1.45;;;25.90;49.30;;;;;;5147505;27;45613;-71
2023/08/05 12:22:43;;;;;;;1.75;1.50;;;25.80;48.80;;;;;;5142124;27;45558;-73
2023/08/05 12:25:10;;;;;;;2.35;1.40;;;25.80;49.60;;;;;;5141274;27;45418;-72
2023/08/05 12:27:38;;;;;;;3.00;1.33;;;25.90;48.00;;;;;;5142104;27;45508;-72
2023/08/05 12:30:06;;;;;;;1.35;1.25;;;26.00;49.20;;;;;;5141996;27;45315;-71
2023/08/05 12:32:34;;;;;;;1.52;1.33;;;26.10;48.70;;;;;;5143824;27;46378;-71
2023/08/05 12:35:01;;;;;;;1.60;1.50;;;26.30;49.00;;;;;;5139340;27;45268;-72
2023/08/05 12:37:28;;;;;;;3.75;1.50;;;26.40;49.10;;;;;;5142861;27;45260;-70
2023/08/05 12:39:55;;;;;;;1.98;1.50;;;26.40;49.50;;;;;;5146710;27;45503;-70
2023/08/05 12:42:21;;;;;;;2.05;1.92;;;26.50;49.80;;;;;;5144663;27;46365;-72
2023/08/05 12:44:50;;;;;;;3.85;1.58;;;26.60;49.90;;;;;;5147860;27;45494;-69
2023/08/05 12:47:16;;;;;;;3.20;1.42;;;26.70;49.80;;;;;;5144794;27;45224;-71
2023/08/05 12:49:43;;;;;;;2.97;1.58;;;26.70;49.60;;;;;;5148009;27;45121;-72